createdAt,value
2018-11-06T00:00:08.704Z,19.15
2018-11-06T00:01:08.786Z,19.15
2018-11-06T00:02:08.718Z,19.14
2018-11-06T00:03:08.701Z,19.16
2018-11-06T00:04:08.575Z,19.15
2018-11-06T00:05:08.683Z,19.15
2018-11-06T00:06:08.553Z,19.14
2018-11-06T00:07:08.643Z,19.13
2018-11-06T00:08:08.925Z,19.14
2018-11-06T00:09:08.675Z,19.15
2018-11-06T00:10:08.894Z,19.12
2018-11-06T00:11:08.631Z,19.13
2018-11-06T00:12:08.957Z,19.14
2018-11-06T00:13:08.892Z,19.14
2018-11-06T00:14:08.652Z,19.13
2018-11-06T00:15:08.837Z,19.12
2018-11-06T00:16:08.769Z,19.12
2018-11-06T00:17:08.734Z,19.12
2018-11-06T00:18:08.886Z,19.11
2018-11-06T00:19:08.765Z,19.14
2018-11-06T00:20:08.635Z,19.12
2018-11-06T00:21:08.728Z,19.12
2018-11-06T00:22:08.589Z,19.11
2018-11-06T00:23:09.037Z,19.13
2018-11-06T00:24:08.773Z,19.11
2018-11-06T00:25:08.741Z,19.15
2018-11-06T00:26:08.760Z,19.12
2018-11-06T00:27:08.703Z,19.13
2018-11-06T00:28:09.073Z,19.14
2018-11-06T00:29:08.872Z,19.12
2018-11-06T00:30:08.704Z,19.12
2018-11-06T00:31:08.580Z,19.15
2018-11-06T00:32:08.767Z,19.12
2018-11-06T00:33:09.729Z,19.12
2018-11-06T00:34:08.978Z,19.13
2018-11-06T00:35:08.841Z,19.12
2018-11-06T00:36:08.704Z,19.12
2018-11-06T00:37:08.732Z,19.12
2018-11-06T00:38:08.676Z,19.12
2018-11-06T00:39:08.943Z,19.1
2018-11-06T00:40:08.612Z,19.11
2018-11-06T00:41:08.956Z,19.12
2018-11-06T00:42:08.804Z,19.12
2018-11-06T00:43:08.628Z,19.11
2018-11-06T00:44:09.026Z,19.1
2018-11-06T00:45:08.620Z,19.1
2018-11-06T00:46:08.729Z,19.1
2018-11-06T00:47:08.646Z,19.1
2018-11-06T00:48:08.746Z,19.11
2018-11-06T00:49:08.755Z,19.1
2018-11-06T00:50:08.621Z,19.1
2018-11-06T00:51:08.763Z,19.11
2018-11-06T00:52:08.735Z,19.11
2018-11-06T00:53:08.729Z,19.1
2018-11-06T00:54:08.682Z,19.1
2018-11-06T00:55:08.749Z,19.11
2018-11-06T00:56:08.655Z,19.09
2018-11-06T00:57:08.984Z,19.09
2018-11-06T00:58:08.666Z,19.1
2018-11-06T00:59:09.230Z,19.1
2018-11-06T01:00:09.178Z,19.09
2018-11-06T01:01:08.597Z,19.08
2018-11-06T01:02:08.820Z,19.09
2018-11-06T01:03:08.901Z,19.09
2018-11-06T01:04:08.685Z,19.09
2018-11-06T01:05:08.756Z,19.08
2018-11-06T01:06:08.658Z,19.08
2018-11-06T01:07:08.575Z,19.09
2018-11-06T01:08:08.608Z,19.08
2018-11-06T01:09:08.782Z,19.08
2018-11-06T01:10:08.629Z,19.08
2018-11-06T01:11:08.966Z,19.06
2018-11-06T01:12:08.642Z,19.07
2018-11-06T01:13:08.993Z,19.06
2018-11-06T01:14:08.880Z,19.06
2018-11-06T01:15:08.758Z,19.05
2018-11-06T01:16:09.008Z,19.05
2018-11-06T01:17:08.728Z,19.06
2018-11-06T01:18:09.013Z,19.07
2018-11-06T01:19:08.642Z,19.05
2018-11-06T01:20:08.732Z,19.05
2018-11-06T01:21:08.562Z,19.06
2018-11-06T01:22:08.776Z,19.05
2018-11-06T01:23:08.675Z,19.06
2018-11-06T01:24:08.955Z,19.06
2018-11-06T01:25:08.849Z,19.05
2018-11-06T01:26:08.611Z,19.04
2018-11-06T01:27:08.817Z,19.05
2018-11-06T01:28:08.594Z,19.04
2018-11-06T01:29:08.784Z,19.04
2018-11-06T01:30:08.792Z,19.04
2018-11-06T01:31:08.945Z,19.05
2018-11-06T01:32:08.940Z,19.05
2018-11-06T01:33:08.757Z,19.04
2018-11-06T01:34:08.780Z,19.04
2018-11-06T01:35:08.668Z,19.04
2018-11-06T01:36:08.784Z,19.04
2018-11-06T01:37:08.555Z,19.05
2018-11-06T01:38:08.759Z,19.05
2018-11-06T01:39:08.860Z,19.04
2018-11-06T01:40:08.630Z,19.04
2018-11-06T01:41:08.520Z,19.04
2018-11-06T01:42:08.626Z,19.05
2018-11-06T01:43:08.713Z,19.05
2018-11-06T01:44:08.556Z,19.02
2018-11-06T01:45:08.727Z,19.04
2018-11-06T01:46:08.694Z,19.03
2018-11-06T01:47:09.020Z,19.03
2018-11-06T01:48:08.545Z,19.03
2018-11-06T01:49:08.691Z,19.02
2018-11-06T01:50:08.617Z,19.03
2018-11-06T01:51:08.626Z,19.03
2018-11-06T01:52:08.774Z,19.03
2018-11-06T01:53:08.660Z,19.04
2018-11-06T01:54:08.783Z,19.02
2018-11-06T01:55:08.550Z,19.02
2018-11-06T01:56:08.730Z,19.03
2018-11-06T01:57:08.532Z,19.02
2018-11-06T01:58:08.635Z,19.01
2018-11-06T01:59:08.614Z,19.01
2018-11-06T02:00:08.927Z,19.02
2018-11-06T02:01:08.700Z,19.02
2018-11-06T02:02:08.736Z,19.03
2018-11-06T02:03:08.924Z,19.01
2018-11-06T02:04:08.796Z,19.01
2018-11-06T02:05:08.727Z,19.01
2018-11-06T02:06:08.752Z,19.01
2018-11-06T02:07:08.693Z,19.01
2018-11-06T02:08:08.763Z,19.02
2018-11-06T02:09:08.724Z,19.02
2018-11-06T02:10:08.823Z,19.02
2018-11-06T02:11:08.680Z,19.01
2018-11-06T02:12:08.780Z,19.02
2018-11-06T02:13:08.645Z,19.02
2018-11-06T02:14:08.760Z,19.02
2018-11-06T02:15:08.524Z,19
2018-11-06T02:16:08.819Z,19
2018-11-06T02:17:08.723Z,19.01
2018-11-06T02:18:08.617Z,19
2018-11-06T02:19:08.689Z,19
2018-11-06T02:20:08.699Z,19.01
2018-11-06T02:21:08.771Z,19
2018-11-06T02:22:08.611Z,19.01
2018-11-06T02:23:08.799Z,19
2018-11-06T02:24:08.609Z,19
2018-11-06T02:25:08.653Z,19.01
2018-11-06T02:26:08.904Z,19.02
2018-11-06T02:27:08.653Z,19.01
2018-11-06T02:28:08.698Z,19
2018-11-06T02:29:08.927Z,19.02
2018-11-06T02:30:08.628Z,19.01
2018-11-06T02:31:08.719Z,19.01
2018-11-06T02:32:08.903Z,19
2018-11-06T02:33:08.716Z,18.99
2018-11-06T02:34:08.690Z,19
2018-11-06T02:35:09.103Z,19
2018-11-06T02:36:08.765Z,18.99
2018-11-06T02:37:08.647Z,18.98
2018-11-06T02:38:08.956Z,18.98
2018-11-06T02:39:08.670Z,18.98
2018-11-06T02:40:08.684Z,18.97
2018-11-06T02:41:08.675Z,19
2018-11-06T02:42:09.002Z,18.98
2018-11-06T02:43:09.080Z,18.99
2018-11-06T02:44:08.658Z,19.01
2018-11-06T02:45:08.533Z,18.99
2018-11-06T02:46:08.928Z,18.99
2018-11-06T02:47:08.739Z,19
2018-11-06T02:48:08.760Z,18.98
2018-11-06T02:49:08.458Z,18.98
2018-11-06T02:50:08.863Z,18.99
2018-11-06T02:51:08.794Z,18.98
2018-11-06T02:52:08.712Z,18.98
2018-11-06T02:53:08.879Z,18.99
2018-11-06T02:54:08.993Z,18.98
2018-11-06T02:55:08.602Z,18.98
2018-11-06T02:56:08.797Z,18.99
2018-11-06T02:57:08.615Z,18.97
2018-11-06T02:58:08.788Z,19
2018-11-06T02:59:08.637Z,18.99
2018-11-06T03:00:09.269Z,19
2018-11-06T03:01:08.535Z,18.99
2018-11-06T03:02:08.588Z,19
2018-11-06T03:03:08.854Z,18.98
2018-11-06T03:04:08.657Z,18.96
2018-11-06T03:05:08.660Z,18.98
2018-11-06T03:06:08.737Z,18.98
2018-11-06T03:07:08.665Z,18.96
2018-11-06T03:08:08.557Z,18.98
2018-11-06T03:09:08.911Z,18.98
2018-11-06T03:10:08.653Z,18.97
2018-11-06T03:11:09.116Z,18.99
2018-11-06T03:12:08.711Z,18.97
2018-11-06T03:13:08.603Z,18.97
2018-11-06T03:14:08.723Z,18.96
2018-11-06T03:15:08.536Z,18.96
2018-11-06T03:16:08.648Z,18.97
2018-11-06T03:17:08.490Z,18.98
2018-11-06T03:18:08.700Z,18.95
2018-11-06T03:19:08.504Z,18.94
2018-11-06T03:20:08.664Z,18.95
2018-11-06T03:21:08.801Z,18.96
2018-11-06T03:22:08.569Z,18.96
2018-11-06T03:23:08.656Z,18.95
2018-11-06T03:24:08.535Z,18.96
2018-11-06T03:25:08.624Z,18.96
2018-11-06T03:26:08.573Z,18.95
2018-11-06T03:27:08.813Z,18.95
2018-11-06T03:28:08.725Z,18.95
2018-11-06T03:29:08.572Z,18.94
2018-11-06T03:30:08.836Z,18.95
2018-11-06T03:31:08.588Z,18.95
2018-11-06T03:32:08.681Z,18.94
2018-11-06T03:33:08.560Z,18.95
2018-11-06T03:34:08.804Z,18.94
2018-11-06T03:35:08.557Z,18.94
2018-11-06T03:36:08.742Z,18.95
2018-11-06T03:37:08.814Z,18.93
2018-11-06T03:38:08.644Z,18.93
2018-11-06T03:39:08.648Z,18.93
2018-11-06T03:40:08.614Z,18.93
2018-11-06T03:41:08.664Z,18.93
2018-11-06T03:42:09.022Z,18.93
2018-11-06T03:43:08.712Z,18.93
2018-11-06T03:44:08.971Z,18.93
2018-11-06T03:45:08.656Z,18.92
2018-11-06T03:46:08.686Z,18.93
2018-11-06T03:47:08.578Z,18.94
2018-11-06T03:48:08.862Z,18.94
2018-11-06T03:49:08.437Z,18.93
2018-11-06T03:50:08.867Z,18.94
2018-11-06T03:51:08.472Z,18.94
2018-11-06T03:52:08.572Z,18.93
2018-11-06T03:53:08.689Z,18.95
2018-11-06T03:54:08.626Z,18.94
2018-11-06T03:55:08.628Z,18.94
2018-11-06T03:56:08.722Z,18.95
2018-11-06T03:57:08.873Z,18.96
2018-11-06T03:58:08.812Z,18.95
2018-11-06T03:59:08.781Z,18.96
2018-11-06T04:00:08.952Z,18.95
2018-11-06T04:01:08.572Z,18.95
2018-11-06T04:02:08.601Z,18.94
2018-11-06T04:03:08.663Z,18.94
2018-11-06T04:04:08.704Z,18.94
2018-11-06T04:05:08.547Z,18.94
2018-11-06T04:06:08.608Z,18.93
2018-11-06T04:07:09.032Z,18.94
2018-11-06T04:08:08.694Z,18.92
2018-11-06T04:09:08.647Z,18.92
2018-11-06T04:10:08.844Z,18.93
2018-11-06T04:11:08.669Z,18.93
2018-11-06T04:12:08.856Z,18.91
2018-11-06T04:13:08.682Z,18.92
2018-11-06T04:14:08.767Z,18.91
2018-11-06T04:15:08.563Z,18.91
2018-11-06T04:16:08.678Z,18.91
2018-11-06T04:17:08.920Z,18.92
2018-11-06T04:18:08.698Z,18.9
2018-11-06T04:19:09.010Z,18.9
2018-11-06T04:20:08.789Z,18.9
2018-11-06T04:21:08.575Z,18.91
2018-11-06T04:22:08.611Z,18.91
2018-11-06T04:23:11.064Z,18.91
2018-11-06T04:24:08.647Z,18.92
2018-11-06T04:25:08.700Z,18.93
2018-11-06T04:26:08.543Z,18.91
2018-11-06T04:27:08.750Z,18.91
2018-11-06T04:28:08.842Z,18.9
2018-11-06T04:29:08.609Z,18.9
2018-11-06T04:30:08.559Z,18.89
2018-11-06T04:31:08.519Z,18.89
2018-11-06T04:32:08.790Z,18.89
2018-11-06T04:33:08.563Z,18.9
2018-11-06T04:34:08.560Z,18.9
2018-11-06T04:35:08.474Z,18.9
2018-11-06T04:36:08.661Z,18.89
2018-11-06T04:37:08.688Z,18.88
2018-11-06T04:38:08.604Z,18.88
2018-11-06T04:39:08.715Z,18.87
2018-11-06T04:40:08.550Z,18.88
2018-11-06T04:41:08.628Z,18.88
2018-11-06T04:42:08.490Z,18.88
2018-11-06T04:43:08.668Z,18.89
2018-11-06T04:44:08.688Z,18.88
2018-11-06T04:45:08.562Z,18.89
2018-11-06T04:46:09.209Z,18.9
2018-11-06T04:47:08.566Z,18.89
2018-11-06T04:48:08.624Z,18.89
2018-11-06T04:49:08.605Z,18.88
2018-11-06T04:50:08.627Z,18.89
2018-11-06T04:51:08.569Z,18.9
2018-11-06T04:52:08.561Z,18.89
2018-11-06T04:53:08.693Z,18.91
2018-11-06T04:54:08.939Z,18.9
2018-11-06T04:55:08.773Z,18.9
2018-11-06T04:56:08.534Z,18.9
2018-11-06T04:57:08.614Z,18.89
2018-11-06T04:58:08.644Z,18.91
2018-11-06T04:59:08.561Z,18.92
2018-11-06T05:00:08.527Z,18.9
2018-11-06T05:01:08.592Z,18.89
2018-11-06T05:02:08.677Z,18.89
2018-11-06T05:03:08.562Z,18.88
2018-11-06T05:04:08.627Z,18.89
2018-11-06T05:05:08.634Z,18.9
2018-11-06T05:06:08.555Z,18.88
2018-11-06T05:07:08.627Z,18.87
2018-11-06T05:08:08.560Z,18.89
2018-11-06T05:09:09.242Z,18.86
2018-11-06T05:10:08.660Z,18.87
2018-11-06T05:11:09.149Z,18.88
2018-11-06T05:12:08.778Z,18.87
2018-11-06T05:13:08.679Z,18.87
2018-11-06T05:14:08.515Z,18.86
2018-11-06T05:15:08.570Z,18.87
2018-11-06T05:16:08.805Z,18.87
2018-11-06T05:17:08.714Z,18.88
2018-11-06T05:18:08.991Z,18.87
2018-11-06T05:19:08.684Z,18.88
2018-11-06T05:20:08.772Z,18.88
2018-11-06T05:21:08.928Z,18.89
2018-11-06T05:22:08.681Z,18.89
2018-11-06T05:23:08.652Z,18.88
2018-11-06T05:24:08.701Z,18.89
2018-11-06T05:25:08.751Z,18.89
2018-11-06T05:26:08.575Z,18.88
2018-11-06T05:27:08.736Z,18.88
2018-11-06T05:28:08.935Z,18.89
2018-11-06T05:29:08.683Z,18.88
2018-11-06T05:30:08.591Z,18.88
2018-11-06T05:31:08.904Z,18.9
2018-11-06T05:32:08.910Z,18.88
2018-11-06T05:33:08.796Z,18.87
2018-11-06T05:34:08.725Z,18.88
2018-11-06T05:35:08.446Z,18.9
2018-11-06T05:36:08.595Z,18.88
2018-11-06T05:37:08.739Z,18.9
2018-11-06T05:38:09.161Z,18.89
2018-11-06T05:39:08.503Z,18.89
2018-11-06T05:40:08.921Z,18.88
2018-11-06T05:41:08.656Z,18.89
2018-11-06T05:42:08.877Z,18.89
2018-11-06T05:43:08.877Z,18.88
2018-11-06T05:44:09.055Z,18.87
2018-11-06T05:45:08.568Z,18.88
2018-11-06T05:46:08.529Z,18.89
2018-11-06T05:47:08.589Z,18.87
2018-11-06T05:48:08.528Z,18.88
2018-11-06T05:49:08.906Z,18.88
2018-11-06T05:50:08.670Z,18.88
2018-11-06T05:51:08.510Z,18.88
2018-11-06T05:52:08.793Z,18.87
2018-11-06T05:53:08.456Z,18.88
2018-11-06T05:54:08.595Z,18.88
2018-11-06T05:55:08.618Z,18.87
2018-11-06T05:56:08.457Z,18.88
2018-11-06T05:57:08.615Z,18.88
2018-11-06T05:58:08.791Z,18.86
2018-11-06T05:59:08.547Z,18.89
2018-11-06T06:00:08.806Z,18.87
2018-11-06T06:01:08.727Z,18.88
2018-11-06T06:02:09.018Z,18.87
2018-11-06T06:03:08.719Z,18.87
2018-11-06T06:04:09.084Z,18.88
2018-11-06T06:05:08.575Z,18.86
2018-11-06T06:06:08.724Z,18.88
2018-11-06T06:07:08.551Z,18.88
2018-11-06T06:08:08.592Z,18.87
2018-11-06T06:09:08.983Z,18.88
2018-11-06T06:10:08.504Z,18.88
2018-11-06T06:11:08.833Z,18.88
2018-11-06T06:12:08.778Z,18.87
2018-11-06T06:13:08.630Z,18.87
2018-11-06T06:14:08.745Z,18.88
2018-11-06T06:15:08.806Z,18.89
2018-11-06T06:16:08.388Z,18.89
2018-11-06T06:17:08.640Z,18.89
2018-11-06T06:18:08.847Z,18.88
2018-11-06T06:19:08.847Z,18.91
2018-11-06T06:20:08.934Z,18.89
2018-11-06T06:21:08.510Z,18.88
2018-11-06T06:22:08.635Z,18.88
2018-11-06T06:23:08.660Z,18.87
2018-11-06T06:24:08.959Z,18.9
2018-11-06T06:25:08.641Z,18.89
2018-11-06T06:26:08.566Z,18.88
2018-11-06T06:27:08.582Z,18.88
2018-11-06T06:28:08.524Z,18.87
2018-11-06T06:29:08.591Z,18.88
2018-11-06T06:30:08.537Z,18.89
2018-11-06T06:31:08.581Z,18.88
2018-11-06T06:32:08.655Z,18.89
2018-11-06T06:33:08.575Z,18.87
2018-11-06T06:34:08.565Z,18.9
2018-11-06T06:35:08.448Z,18.89
2018-11-06T06:36:08.543Z,18.89
2018-11-06T06:37:08.399Z,18.9
2018-11-06T06:38:08.510Z,18.88
2018-11-06T06:39:08.590Z,18.87
2018-11-06T06:40:08.655Z,18.87
2018-11-06T06:41:08.685Z,18.9
2018-11-06T06:42:08.434Z,18.87
2018-11-06T06:43:08.553Z,18.87
2018-11-06T06:44:08.430Z,18.87
2018-11-06T06:45:08.600Z,18.87
2018-11-06T06:46:08.812Z,18.88
2018-11-06T06:47:08.449Z,18.87
2018-11-06T06:48:08.685Z,18.88
2018-11-06T06:49:08.607Z,18.88
2018-11-06T06:50:08.684Z,18.86
2018-11-06T06:51:08.641Z,18.87
2018-11-06T06:52:08.786Z,18.87
2018-11-06T06:53:08.714Z,18.87
2018-11-06T06:54:09.278Z,18.88
2018-11-06T06:55:08.963Z,18.88
2018-11-06T06:56:08.677Z,18.87
2018-11-06T06:57:08.600Z,18.86
2018-11-06T06:58:08.416Z,18.85
2018-11-06T06:59:08.530Z,18.85
2018-11-06T07:00:08.614Z,18.85
2018-11-06T07:01:08.721Z,18.85
2018-11-06T07:02:08.559Z,18.85
2018-11-06T07:03:08.333Z,18.87
2018-11-06T07:04:08.526Z,18.87
2018-11-06T07:05:08.675Z,18.86
2018-11-06T07:06:08.888Z,18.87
2018-11-06T07:07:08.994Z,18.87
2018-11-06T07:08:08.594Z,18.86
2018-11-06T07:09:08.573Z,18.87
2018-11-06T07:10:08.537Z,18.87
2018-11-06T07:11:08.791Z,18.88
2018-11-06T07:12:08.791Z,18.88
2018-11-06T07:13:08.742Z,18.87
2018-11-06T07:14:08.575Z,18.87
2018-11-06T07:15:08.722Z,18.87
2018-11-06T07:16:08.820Z,18.87
2018-11-06T07:17:08.453Z,18.89
2018-11-06T07:18:08.730Z,18.88
2018-11-06T07:19:08.558Z,18.87
2018-11-06T07:20:08.483Z,18.87
2018-11-06T07:21:08.653Z,18.87
2018-11-06T07:22:08.652Z,18.91
2018-11-06T07:23:08.878Z,18.88
2018-11-06T07:24:08.403Z,18.86
2018-11-06T07:25:08.603Z,18.87
2018-11-06T07:26:08.709Z,18.85
2018-11-06T07:27:08.838Z,18.86
2018-11-06T07:28:08.950Z,18.86
2018-11-06T07:29:08.471Z,18.85
2018-11-06T07:30:08.548Z,18.84
2018-11-06T07:31:08.406Z,18.85
2018-11-06T07:32:08.581Z,18.84
2018-11-06T07:33:08.860Z,18.84
2018-11-06T07:34:08.534Z,18.84
2018-11-06T07:35:08.916Z,18.84
2018-11-06T07:36:08.440Z,18.83
2018-11-06T07:37:08.692Z,18.85
2018-11-06T07:38:08.529Z,18.84
2018-11-06T07:39:08.778Z,18.85
2018-11-06T07:40:08.447Z,18.84
2018-11-06T07:41:09.079Z,18.84
2018-11-06T07:42:08.702Z,18.85
2018-11-06T07:43:08.863Z,18.85
2018-11-06T07:44:08.844Z,18.85
2018-11-06T07:45:08.609Z,18.85
2018-11-06T07:46:09.343Z,18.86
2018-11-06T07:47:08.495Z,18.84
2018-11-06T07:48:08.464Z,18.87
2018-11-06T07:49:08.624Z,18.86
2018-11-06T07:50:08.561Z,18.86
2018-11-06T07:51:08.643Z,18.85
2018-11-06T07:52:08.644Z,18.85
2018-11-06T07:53:08.584Z,18.86
2018-11-06T07:54:08.726Z,18.87
2018-11-06T07:55:08.561Z,18.88
2018-11-06T07:56:09.165Z,18.85
2018-11-06T07:57:08.401Z,18.85
2018-11-06T07:58:08.543Z,18.88
2018-11-06T07:59:08.933Z,18.85
2018-11-06T08:00:08.699Z,18.87
2018-11-06T08:01:08.545Z,18.87
2018-11-06T08:02:08.427Z,18.88
2018-11-06T08:03:08.558Z,18.88
2018-11-06T08:04:08.604Z,18.87
2018-11-06T08:05:08.561Z,18.86
2018-11-06T08:06:08.535Z,18.85
2018-11-06T08:07:08.531Z,18.87
2018-11-06T08:08:08.668Z,18.85
2018-11-06T08:09:08.704Z,18.85
2018-11-06T08:10:08.565Z,18.88
2018-11-06T08:11:08.616Z,18.88
2018-11-06T08:12:08.570Z,18.87
2018-11-06T08:13:08.324Z,18.86
2018-11-06T08:14:08.553Z,18.86
2018-11-06T08:15:08.942Z,18.88
2018-11-06T08:16:08.360Z,18.87
2018-11-06T08:17:08.560Z,18.86
2018-11-06T08:18:08.411Z,18.85
2018-11-06T08:19:08.508Z,18.84
2018-11-06T08:20:08.573Z,18.86
2018-11-06T08:21:08.482Z,18.86
2018-11-06T08:22:08.320Z,18.85
2018-11-06T08:23:08.460Z,18.84
2018-11-06T08:24:08.624Z,18.84
2018-11-06T08:25:08.709Z,18.84
2018-11-06T08:26:08.612Z,18.84
2018-11-06T08:27:08.621Z,18.84
2018-11-06T08:28:08.745Z,18.86
2018-11-06T08:29:09.157Z,18.86
2018-11-06T08:30:08.716Z,18.85
2018-11-06T08:31:09.019Z,18.83
2018-11-06T08:32:09.284Z,18.84
2018-11-06T08:33:08.665Z,18.85
2018-11-06T08:34:08.348Z,18.87
2018-11-06T08:35:08.778Z,18.86
2018-11-06T08:36:08.568Z,18.84
2018-11-06T08:37:08.978Z,18.85
2018-11-06T08:38:08.598Z,18.84
2018-11-06T08:39:08.811Z,18.84
2018-11-06T08:40:08.570Z,18.82
2018-11-06T08:41:08.537Z,18.83
2018-11-06T08:42:08.608Z,18.82
2018-11-06T08:43:08.359Z,18.84
2018-11-06T08:44:08.673Z,18.83
2018-11-06T08:45:08.660Z,18.84
2018-11-06T08:46:08.894Z,18.83
2018-11-06T08:47:08.493Z,18.85
2018-11-06T08:48:08.494Z,18.85
2018-11-06T08:49:08.672Z,18.85
2018-11-06T08:50:08.823Z,18.85
2018-11-06T08:51:08.674Z,18.84
2018-11-06T08:52:08.589Z,18.86
2018-11-06T08:53:08.404Z,18.84
2018-11-06T08:54:08.712Z,18.83
2018-11-06T08:55:08.641Z,18.81
2018-11-06T08:56:08.482Z,18.83
2018-11-06T08:57:08.677Z,18.81
2018-11-06T08:58:08.679Z,18.82
2018-11-06T08:59:08.877Z,18.84
2018-11-06T09:00:08.538Z,18.82
2018-11-06T09:01:08.616Z,18.81
2018-11-06T09:02:08.664Z,18.83
2018-11-06T09:03:08.480Z,18.84
2018-11-06T09:04:08.561Z,18.83
2018-11-06T09:05:08.714Z,18.85
2018-11-06T09:06:08.856Z,18.84
2018-11-06T09:07:08.433Z,18.84
2018-11-06T09:08:08.513Z,18.82
2018-11-06T09:09:08.707Z,18.83
2018-11-06T09:10:09.007Z,18.83
2018-11-06T09:11:08.339Z,18.84
2018-11-06T09:12:08.572Z,18.82
2018-11-06T09:13:08.623Z,18.82
2018-11-06T09:14:08.495Z,18.81
2018-11-06T09:15:08.645Z,18.8
2018-11-06T09:16:08.395Z,18.81
2018-11-06T09:17:08.987Z,18.83
2018-11-06T09:18:08.672Z,18.8
2018-11-06T09:19:08.473Z,18.79
2018-11-06T09:20:08.595Z,18.78
2018-11-06T09:21:08.522Z,18.79
2018-11-06T09:22:09.031Z,18.79
2018-11-06T09:23:08.354Z,18.8
2018-11-06T09:24:08.818Z,18.81
2018-11-06T09:25:08.759Z,18.81
2018-11-06T09:26:08.756Z,18.78
2018-11-06T09:27:08.617Z,18.8
2018-11-06T09:28:08.937Z,18.79
2018-11-06T09:29:08.821Z,18.8
2018-11-06T09:30:08.293Z,18.8
2018-11-06T09:31:08.996Z,18.79
2018-11-06T09:32:08.749Z,18.79
2018-11-06T09:33:08.590Z,18.78
2018-11-06T09:34:08.651Z,18.78
2018-11-06T09:35:08.760Z,18.79
2018-11-06T09:36:08.529Z,18.79
2018-11-06T09:37:08.576Z,18.79
2018-11-06T09:38:08.552Z,18.81
2018-11-06T09:39:08.492Z,18.78
2018-11-06T09:40:08.463Z,18.78
2018-11-06T09:41:08.400Z,18.79
2018-11-06T09:42:08.494Z,18.8
2018-11-06T09:43:08.563Z,18.78
2018-11-06T09:44:08.370Z,18.79
2018-11-06T09:45:08.716Z,18.78
2018-11-06T09:46:08.381Z,18.8
2018-11-06T09:47:08.556Z,18.8
2018-11-06T09:48:08.299Z,18.8
2018-11-06T09:49:08.511Z,18.78
2018-11-06T09:50:08.534Z,18.78
2018-11-06T09:51:08.513Z,18.78
2018-11-06T09:52:08.902Z,18.79
2018-11-06T09:53:08.386Z,18.79
2018-11-06T09:54:08.558Z,18.8
2018-11-06T09:55:08.833Z,18.8
2018-11-06T09:56:08.494Z,18.79
2018-11-06T09:57:08.535Z,18.79
2018-11-06T09:58:08.377Z,18.79
2018-11-06T09:59:09.014Z,18.78
2018-11-06T10:00:08.394Z,18.79
2018-11-06T10:01:09.321Z,18.82
2018-11-06T10:02:08.386Z,18.8
2018-11-06T10:03:08.428Z,18.81
2018-11-06T10:04:08.650Z,18.82
2018-11-06T10:05:08.618Z,18.81
2018-11-06T10:06:08.641Z,18.81
2018-11-06T10:07:09.190Z,18.82
2018-11-06T10:08:08.742Z,18.79
2018-11-06T10:09:08.325Z,18.79
2018-11-06T10:10:08.775Z,18.8
2018-11-06T10:11:08.959Z,18.8
2018-11-06T10:12:08.458Z,18.78
2018-11-06T10:13:08.489Z,18.77
2018-11-06T10:14:08.776Z,18.77
2018-11-06T10:15:08.817Z,18.79
2018-11-06T10:16:08.828Z,18.74
2018-11-06T10:17:08.788Z,18.68
2018-11-06T10:18:08.917Z,18.62
2018-11-06T10:19:08.362Z,18.59
2018-11-06T10:20:08.649Z,18.57
2018-11-06T10:21:08.404Z,18.56
2018-11-06T10:22:08.648Z,18.55
2018-11-06T10:23:08.583Z,18.53
2018-11-06T10:24:08.702Z,18.48
2018-11-06T10:25:08.765Z,18.48
2018-11-06T10:26:08.751Z,18.47
2018-11-06T10:27:08.901Z,18.46
2018-11-06T10:28:08.873Z,18.46
2018-11-06T10:29:08.690Z,18.47
2018-11-06T10:30:09.460Z,18.46
2018-11-06T10:31:08.699Z,18.46
2018-11-06T10:32:08.455Z,18.45
2018-11-06T10:33:08.344Z,18.42
2018-11-06T10:34:08.471Z,18.37
2018-11-06T10:35:08.603Z,18.41
2018-11-06T10:36:08.723Z,18.38
2018-11-06T10:37:08.301Z,18.39
2018-11-06T10:38:08.502Z,18.35
2018-11-06T10:39:08.498Z,18.35
2018-11-06T10:40:08.494Z,18.35
2018-11-06T10:41:08.503Z,18.35
2018-11-06T10:42:08.413Z,18.36
2018-11-06T10:43:08.423Z,18.39
2018-11-06T10:44:08.661Z,18.34
2018-11-06T10:45:08.689Z,18.4
2018-11-06T10:46:08.796Z,18.48
2018-11-06T10:47:08.696Z,18.52
2018-11-06T10:48:08.513Z,18.55
2018-11-06T10:49:08.557Z,18.56
2018-11-06T10:50:08.888Z,18.57
2018-11-06T10:51:08.529Z,18.56
2018-11-06T10:52:08.402Z,18.56
2018-11-06T10:53:08.947Z,18.55
2018-11-06T10:54:08.337Z,18.56
2018-11-06T10:55:08.564Z,18.55
2018-11-06T10:56:08.373Z,18.55
2018-11-06T10:57:08.400Z,18.56
2018-11-06T10:58:08.758Z,18.56
2018-11-06T10:59:08.428Z,18.56
2018-11-06T11:00:08.578Z,18.56
2018-11-06T11:01:08.807Z,18.56
2018-11-06T11:02:08.471Z,18.56
2018-11-06T11:03:08.417Z,18.56
2018-11-06T11:04:08.445Z,18.56
2018-11-06T11:05:08.585Z,18.57
2018-11-06T11:06:08.382Z,18.56
2018-11-06T11:07:08.740Z,18.57
2018-11-06T11:08:08.296Z,18.57
2018-11-06T11:09:08.666Z,18.57
2018-11-06T11:10:08.326Z,18.57
2018-11-06T11:11:08.422Z,18.58
2018-11-06T11:12:08.551Z,18.58
2018-11-06T11:13:08.382Z,18.58
2018-11-06T11:14:08.545Z,18.58
2018-11-06T11:15:08.462Z,18.58
2018-11-06T11:16:08.536Z,18.59
2018-11-06T11:17:08.379Z,18.59
2018-11-06T11:18:08.419Z,18.59
2018-11-06T11:19:08.282Z,18.59
2018-11-06T11:20:08.515Z,18.58
2018-11-06T11:21:08.595Z,18.58
2018-11-06T11:22:08.344Z,18.58
2018-11-06T11:23:08.484Z,18.58
2018-11-06T11:24:08.340Z,18.58
2018-11-06T11:25:08.572Z,18.59
2018-11-06T11:26:08.686Z,18.58
2018-11-06T11:27:08.455Z,18.58
2018-11-06T11:28:08.574Z,18.58
2018-11-06T11:29:08.454Z,18.59
2018-11-06T11:30:08.543Z,18.59
2018-11-06T11:31:08.328Z,18.59
2018-11-06T11:32:08.976Z,18.59
2018-11-06T11:33:08.378Z,18.6
2018-11-06T11:34:08.742Z,18.6
2018-11-06T11:35:08.617Z,18.6
2018-11-06T11:36:08.435Z,18.6
2018-11-06T11:37:08.753Z,18.59
2018-11-06T11:38:08.406Z,18.59
2018-11-06T11:39:08.664Z,18.6
2018-11-06T11:40:08.347Z,18.6
2018-11-06T11:41:08.678Z,18.59
2018-11-06T11:42:08.451Z,18.6
2018-11-06T11:43:08.594Z,18.6
2018-11-06T11:44:08.599Z,18.61
2018-11-06T11:45:08.299Z,18.6
2018-11-06T11:46:08.630Z,18.6
2018-11-06T11:47:08.835Z,18.61
2018-11-06T11:48:08.363Z,18.6
2018-11-06T11:49:08.530Z,18.6
2018-11-06T11:50:08.436Z,18.61
2018-11-06T11:51:08.434Z,18.61
2018-11-06T11:52:08.289Z,18.61
2018-11-06T11:53:08.517Z,18.61
2018-11-06T11:54:09.091Z,18.6
2018-11-06T11:55:08.375Z,18.61
2018-11-06T11:56:08.427Z,18.61
2018-11-06T11:57:08.445Z,18.61
2018-11-06T11:58:08.714Z,18.6
2018-11-06T11:59:08.396Z,18.61
2018-11-06T12:00:08.432Z,18.61
2018-11-06T12:01:08.618Z,18.61
2018-11-06T12:02:08.460Z,18.61
2018-11-06T12:03:08.658Z,18.61
2018-11-06T12:04:08.268Z,18.6
2018-11-06T12:05:08.649Z,18.61
2018-11-06T12:06:08.252Z,18.62
2018-11-06T12:07:08.507Z,18.61
2018-11-06T12:08:08.564Z,18.61
2018-11-06T12:09:08.321Z,18.61
2018-11-06T12:10:08.691Z,18.61
2018-11-06T12:11:08.289Z,18.61
2018-11-06T12:12:08.597Z,18.61
2018-11-06T12:13:08.335Z,18.61
2018-11-06T12:14:08.413Z,18.61
2018-11-06T12:15:09.172Z,18.61
2018-11-06T12:16:08.617Z,18.61
2018-11-06T12:17:08.565Z,18.62
2018-11-06T12:18:08.368Z,18.61
2018-11-06T12:19:08.746Z,18.61
2018-11-06T12:20:08.286Z,18.61
2018-11-06T12:21:08.392Z,18.61
2018-11-06T12:22:08.375Z,18.61
2018-11-06T12:23:08.672Z,18.61
2018-11-06T12:24:08.614Z,18.6
2018-11-06T12:25:08.633Z,18.61
2018-11-06T12:26:08.414Z,18.61
2018-11-06T12:27:08.342Z,18.61
2018-11-06T12:28:08.613Z,18.6
2018-11-06T12:29:08.538Z,18.6
2018-11-06T12:30:08.537Z,18.61
2018-11-06T12:31:08.321Z,18.6
2018-11-06T12:32:08.782Z,18.61
2018-11-06T12:33:08.444Z,18.61
2018-11-06T12:34:08.521Z,18.61
2018-11-06T12:35:08.350Z,18.61
2018-11-06T12:36:08.396Z,18.61
2018-11-06T12:37:08.461Z,18.61
2018-11-06T12:38:08.576Z,18.61
2018-11-06T12:39:08.674Z,18.61
2018-11-06T12:40:08.464Z,18.61
2018-11-06T12:41:08.430Z,18.61
2018-11-06T12:42:08.404Z,18.61
2018-11-06T12:43:08.975Z,18.61
2018-11-06T12:44:08.317Z,18.62
2018-11-06T12:45:08.409Z,18.6
2018-11-06T12:46:08.559Z,18.61
2018-11-06T12:47:08.317Z,18.62
2018-11-06T12:48:08.459Z,18.62
2018-11-06T12:49:08.271Z,18.61
2018-11-06T12:50:08.634Z,18.62
2018-11-06T12:51:08.300Z,18.62
2018-11-06T12:52:08.307Z,18.62
2018-11-06T12:53:08.504Z,18.62
2018-11-06T12:54:08.643Z,18.63
2018-11-06T12:55:08.402Z,18.61
2018-11-06T12:56:08.247Z,18.61